createdAt,value
2022-11-19T03:15:32.927Z,4.1
2022-11-19T04:11:32.921Z,3.9
2022-11-19T04:12:32.931Z,4
2022-11-19T04:13:32.924Z,4
2022-11-19T04:14:33.237Z,4.1
2022-11-19T04:15:32.923Z,4
2022-11-19T04:17:32.917Z,3.9
2022-11-19T04:18:32.920Z,3.9
2022-11-19T04:19:32.922Z,3.9
2022-11-19T04:20:32.919Z,3.9
2022-11-19T04:21:32.928Z,4
2022-11-19T04:22:32.927Z,4
2022-11-19T04:23:32.969Z,4
2022-11-19T04:24:32.927Z,4.2
2022-11-19T04:25:32.928Z,4.1
2022-11-19T04:26:32.929Z,4.1
2022-11-19T04:27:32.931Z,4.1
2022-11-19T04:28:32.920Z,4.1
2022-11-19T04:29:32.923Z,4.1
2022-11-19T04:30:32.926Z,4
2022-11-19T04:31:32.948Z,3.8
2022-11-19T04:32:32.935Z,3.9
2022-11-19T04:33:32.927Z,3.8
2022-11-19T04:34:32.928Z,3.9
2022-11-19T04:35:32.991Z,3.8
2022-11-19T04:36:32.958Z,3.7
2022-11-19T04:37:32.927Z,3.7
2022-11-19T04:38:32.925Z,3.7
2022-11-19T04:39:32.924Z,3.8
2022-11-19T04:40:32.923Z,3.9
2022-11-19T04:41:32.922Z,3.8
2022-11-19T04:42:32.924Z,3.7
2022-11-19T04:43:32.926Z,3.7
2022-11-19T04:44:32.926Z,3.6
2022-11-19T04:45:32.922Z,3.6
2022-11-19T04:46:32.924Z,3.5
2022-11-19T04:47:32.971Z,3.5
2022-11-19T04:48:32.935Z,3.5
2022-11-19T04:49:32.918Z,3.5
2022-11-19T04:50:32.946Z,3.5
2022-11-19T04:51:32.924Z,3.5
2022-11-19T04:52:37.717Z,3.5
2022-11-19T04:53:32.915Z,3.4
2022-11-19T04:54:32.928Z,3.4
2022-11-19T04:55:32.925Z,3.5
2022-11-19T04:56:32.925Z,3.6
2022-11-19T04:57:32.924Z,3.5
2022-11-19T04:58:32.924Z,3.5
2022-11-19T04:59:32.963Z,3.5
2022-11-19T05:00:32.914Z,3.5
2022-11-19T05:01:33.044Z,3.6
2022-11-19T05:02:32.937Z,3.6
2022-11-19T05:03:32.917Z,3.5
2022-11-19T05:04:32.923Z,3.5
2022-11-19T05:05:32.921Z,3.5
2022-11-19T05:06:32.916Z,3.6
2022-11-19T05:07:32.967Z,3.5
2022-11-19T05:08:32.932Z,3.5
2022-11-19T05:09:32.924Z,3.5
2022-11-19T05:10:32.920Z,3.5
2022-11-19T05:11:32.918Z,3.7
2022-11-19T05:12:32.918Z,3.7
2022-11-19T05:13:32.916Z,3.7
2022-11-19T05:14:32.952Z,3.6
2022-11-19T05:15:32.916Z,3.6
2022-11-19T05:16:32.918Z,3.7
2022-11-19T05:17:32.923Z,3.7
2022-11-19T05:18:32.932Z,3.6
2022-11-19T05:19:32.918Z,3.5
2022-11-19T05:20:32.915Z,3.4
2022-11-19T05:21:32.916Z,3.4
2022-11-19T05:22:32.914Z,3.3
2022-11-19T05:23:32.924Z,3.3
2022-11-19T05:24:32.919Z,3.3
2022-11-19T05:25:32.912Z,3.3
2022-11-19T05:26:32.917Z,3.3
2022-11-19T05:27:32.918Z,3.1
2022-11-19T05:28:39.129Z,3.1
2022-11-19T05:29:32.925Z,3.2
2022-11-19T05:30:32.924Z,3.2
2022-11-19T05:31:32.978Z,3.3
2022-11-19T05:32:32.916Z,3.3
2022-11-19T05:33:34.559Z,3.4
2022-11-19T05:34:32.914Z,3.4
2022-11-19T05:35:32.912Z,3.4
2022-11-19T05:36:32.912Z,3.3
2022-11-19T05:38:34.116Z,3.3
2022-11-19T05:40:32.924Z,3.3
2022-11-19T05:41:32.935Z,3.3
2022-11-19T05:42:32.916Z,3.2
2022-11-19T05:43:32.938Z,3.2
2022-11-19T05:44:32.922Z,3.2
2022-11-19T05:45:32.910Z,3.2
2022-11-19T05:46:32.914Z,3.2
2022-11-19T05:47:32.936Z,3.2
2022-11-19T05:48:32.916Z,3.2
2022-11-19T05:49:32.909Z,3.2
2022-11-19T05:50:32.915Z,3.2
2022-11-19T05:52:32.911Z,3.2
2022-11-19T05:53:32.913Z,3.2
2022-11-19T05:54:32.985Z,3.3
2022-11-19T05:55:32.915Z,3.3
2022-11-19T05:56:32.918Z,3.4
2022-11-19T05:57:32.938Z,3.3
2022-11-19T05:58:32.910Z,3.3
2022-11-19T05:59:32.927Z,3.3
2022-11-19T06:00:32.922Z,3.3
2022-11-19T06:01:32.925Z,3.3
2022-11-19T06:03:32.922Z,3.3
2022-11-19T06:04:32.941Z,3.3
2022-11-19T06:05:38.733Z,3.3
2022-11-19T06:06:32.916Z,3.3
2022-11-19T06:07:33.021Z,3.2
2022-11-19T06:08:32.906Z,3.1
2022-11-19T06:09:32.913Z,3
2022-11-19T06:10:32.913Z,2.9
2022-11-19T06:11:32.916Z,3
2022-11-19T06:12:32.915Z,3
2022-11-19T06:13:32.911Z,3
2022-11-19T06:14:32.927Z,2.9
2022-11-19T06:15:32.931Z,2.8
2022-11-19T06:16:32.912Z,2.8
2022-11-19T06:17:32.915Z,2.8
2022-11-19T06:18:32.913Z,2.8
2022-11-19T06:19:32.912Z,2.9
2022-11-19T06:20:32.911Z,2.9
2022-11-19T06:22:32.943Z,3.1
2022-11-19T06:23:32.909Z,3
2022-11-19T06:25:32.914Z,3.1
2022-11-19T06:26:32.916Z,3.1
2022-11-19T06:27:32.952Z,3
2022-11-19T06:28:32.911Z,3
2022-11-19T06:30:32.919Z,2.9
2022-11-19T06:31:32.916Z,2.9
2022-11-19T06:32:32.979Z,2.9
2022-11-19T06:33:32.916Z,3
2022-11-19T06:34:32.919Z,3.1
2022-11-19T06:35:32.940Z,3.1
2022-11-19T06:36:39.067Z,3.1
2022-11-19T06:37:32.916Z,3
2022-11-19T06:39:32.904Z,2.9
2022-11-19T06:40:32.914Z,3
2022-11-19T06:41:32.927Z,3
2022-11-19T06:42:32.914Z,3.1
2022-11-19T06:43:32.912Z,3.2
2022-11-19T06:44:32.916Z,3.1
2022-11-19T06:45:32.914Z,3
2022-11-19T06:46:32.911Z,2.9
2022-11-19T06:47:32.913Z,3
2022-11-19T06:48:32.914Z,2.9
2022-11-19T06:49:32.912Z,2.9
2022-11-19T06:50:32.921Z,3
2022-11-19T06:51:33.056Z,3
2022-11-19T06:52:32.916Z,2.9
2022-11-19T06:53:32.916Z,3
2022-11-19T06:54:32.907Z,3
2022-11-19T06:55:32.908Z,3
2022-11-19T06:56:32.960Z,3
2022-11-19T06:57:32.911Z,3
2022-11-19T06:58:32.905Z,3.1
2022-11-19T06:59:32.908Z,3.1
2022-11-19T07:00:32.914Z,3.1
2022-11-19T07:01:33.323Z,3
2022-11-19T07:02:32.910Z,3
2022-11-19T07:03:32.906Z,3
2022-11-19T07:04:32.907Z,2.9
2022-11-19T07:05:32.907Z,2.9
2022-11-19T07:06:32.929Z,2.8
2022-11-19T07:07:32.939Z,2.8
2022-11-19T07:08:32.903Z,2.8
2022-11-19T07:09:32.924Z,2.8
2022-11-19T07:10:32.905Z,2.9
2022-11-19T07:11:32.923Z,3
2022-11-19T07:12:32.912Z,3
2022-11-19T07:13:32.943Z,3.1
2022-11-19T07:14:32.909Z,3.2
2022-11-19T07:16:32.916Z,3.2
2022-11-19T07:17:32.904Z,3.1
2022-11-19T07:18:32.994Z,3
2022-11-19T07:19:32.913Z,3
2022-11-19T07:20:32.908Z,3.1
2022-11-19T07:21:32.917Z,3.1
2022-11-19T07:22:32.910Z,3.2
2022-11-19T07:23:32.911Z,3.2
2022-11-19T07:24:32.911Z,3.2
2022-11-19T07:25:32.907Z,3.2
2022-11-19T07:26:32.910Z,3.2
2022-11-19T07:27:32.910Z,3.1
2022-11-19T07:28:32.906Z,3.1
2022-11-19T07:29:32.906Z,2.9
2022-11-19T07:30:32.911Z,2.9
2022-11-19T07:31:32.902Z,2.8
2022-11-19T07:32:32.905Z,2.8
2022-11-19T07:33:32.915Z,2.9
2022-11-19T07:34:32.915Z,2.9
2022-11-19T07:35:32.909Z,2.8
2022-11-19T07:36:32.910Z,2.8
2022-11-19T07:37:32.936Z,2.8
2022-11-19T07:39:32.908Z,2.6
2022-11-19T07:40:32.984Z,2.6
2022-11-19T07:41:32.906Z,2.6
2022-11-19T07:42:32.901Z,2.6
2022-11-19T07:44:32.908Z,2.5
2022-11-19T07:45:32.908Z,2.6
2022-11-19T07:46:32.901Z,2.6
2022-11-19T07:47:32.903Z,2.6
2022-11-19T07:48:32.909Z,2.6
2022-11-19T07:49:32.926Z,2.7
2022-11-19T07:50:32.905Z,2.7
2022-11-19T07:51:32.914Z,2.8
2022-11-19T07:52:32.950Z,2.9
2022-11-19T07:53:32.915Z,2.9
2022-11-19T07:54:32.906Z,3
2022-11-19T07:55:32.913Z,3
2022-11-19T07:56:32.908Z,2.9
2022-11-19T07:57:32.907Z,2.9
2022-11-19T07:58:32.909Z,2.8
2022-11-19T07:59:32.899Z,2.8
2022-11-19T08:00:32.908Z,2.7
2022-11-19T08:01:32.952Z,2.7
2022-11-19T08:02:32.905Z,2.7
2022-11-19T08:03:32.906Z,2.8
2022-11-19T08:05:32.899Z,3
2022-11-19T08:06:32.900Z,3.1
2022-11-19T08:07:33.021Z,3.2
2022-11-19T08:08:32.932Z,3.1
2022-11-19T08:09:32.904Z,3
2022-11-19T08:10:32.948Z,2.9
2022-11-19T08:11:32.922Z,2.9
2022-11-19T08:12:32.904Z,3
2022-11-19T08:13:32.898Z,3
2022-11-19T08:14:32.899Z,3
2022-11-19T08:15:32.927Z,3
2022-11-19T08:16:32.900Z,2.9
2022-11-19T08:17:32.908Z,2.8
2022-11-19T08:18:32.894Z,2.9
2022-11-19T08:19:32.934Z,2.8
2022-11-19T08:20:32.899Z,2.8
2022-11-19T08:21:32.908Z,2.9
2022-11-19T08:22:32.926Z,2.8
2022-11-19T08:23:32.903Z,2.8
2022-11-19T08:24:32.965Z,2.9
2022-11-19T08:25:32.903Z,3
2022-11-19T08:26:32.916Z,2.9
2022-11-19T08:27:32.906Z,2.8
2022-11-19T08:28:32.901Z,2.9
2022-11-19T08:29:32.918Z,2.9
2022-11-19T08:30:32.894Z,2.9
2022-11-19T08:31:32.899Z,3
2022-11-19T08:32:32.897Z,3
2022-11-19T08:33:32.932Z,3
2022-11-19T08:34:32.893Z,3
2022-11-19T08:35:32.901Z,3.1
2022-11-19T08:36:32.979Z,3.1
2022-11-19T08:37:32.910Z,3.1
2022-11-19T08:38:38.197Z,3.1
2022-11-19T08:39:32.927Z,3.1
2022-11-19T08:40:32.897Z,3.1
2022-11-19T08:41:32.920Z,3
2022-11-19T08:42:32.897Z,2.9
2022-11-19T08:43:32.893Z,2.9
2022-11-19T08:44:32.899Z,2.8
2022-11-19T08:45:32.898Z,2.8
2022-11-19T08:46:32.902Z,2.8
2022-11-19T08:47:32.897Z,2.8
2022-11-19T08:48:32.902Z,2.8
2022-11-19T08:49:32.923Z,2.9
2022-11-19T08:50:32.898Z,2.9
2022-11-19T08:51:32.898Z,2.8
2022-11-19T08:52:32.900Z,2.7
2022-11-19T08:53:32.900Z,2.8
2022-11-19T08:54:32.894Z,2.8
2022-11-19T08:55:32.916Z,2.8
2022-11-19T08:56:32.896Z,2.9
2022-11-19T08:57:32.893Z,2.8
2022-11-19T08:58:32.900Z,2.8
2022-11-19T08:59:32.898Z,2.8
2022-11-19T09:00:32.968Z,2.8
2022-11-19T09:01:32.892Z,2.9
2022-11-19T09:02:32.902Z,2.9
2022-11-19T09:03:32.891Z,3
2022-11-19T09:04:32.890Z,2.9
2022-11-19T09:05:32.941Z,2.8
2022-11-19T09:06:32.895Z,2.8
2022-11-19T09:07:32.961Z,2.9
2022-11-19T09:08:32.905Z,2.8
2022-11-19T09:09:32.895Z,2.8
2022-11-19T09:10:32.923Z,2.8
2022-11-19T09:11:32.893Z,2.8
2022-11-19T09:12:32.896Z,2.9
2022-11-19T09:13:32.893Z,3
2022-11-19T09:14:32.889Z,3.1
2022-11-19T09:15:32.903Z,3.2
2022-11-19T09:16:32.893Z,3.2
2022-11-19T09:17:32.898Z,3.2
2022-11-19T09:18:32.895Z,3.1
2022-11-19T09:19:32.919Z,3.1
2022-11-19T09:20:32.894Z,3
2022-11-19T09:21:32.895Z,2.9
2022-11-19T09:22:32.901Z,2.8
2022-11-19T09:23:32.895Z,2.8
2022-11-19T09:24:32.887Z,2.8
2022-11-19T09:25:32.894Z,2.9
2022-11-19T09:27:32.938Z,2.9
2022-11-19T09:28:32.897Z,2.9
2022-11-19T09:29:32.919Z,3
2022-11-19T09:31:32.907Z,3.1
2022-11-19T09:32:32.901Z,3.2
2022-11-19T09:33:32.902Z,3.2
2022-11-19T09:34:32.901Z,3
2022-11-19T09:35:32.896Z,2.8
2022-11-19T09:36:32.890Z,2.7
2022-11-19T09:37:32.900Z,2.6
2022-11-19T09:38:32.899Z,2.7
2022-11-19T09:40:32.886Z,2.8
2022-11-19T09:41:32.927Z,2.8
2022-11-19T09:42:32.892Z,2.9
2022-11-19T09:44:32.897Z,3
2022-11-19T09:45:32.890Z,3
2022-11-19T09:46:32.893Z,3.1
2022-11-19T09:47:32.886Z,2.8
2022-11-19T09:48:32.890Z,2.8
2022-11-19T09:49:32.896Z,2.7
2022-11-19T09:50:32.895Z,2.7
2022-11-19T09:51:32.891Z,2.7
2022-11-19T09:52:32.889Z,2.6
2022-11-19T09:53:32.913Z,2.7
2022-11-19T09:54:32.897Z,2.6
2022-11-19T09:55:32.893Z,2.7
2022-11-19T09:56:32.896Z,2.7
2022-11-19T09:57:32.888Z,2.7
2022-11-19T09:58:32.891Z,2.7
2022-11-19T09:59:32.887Z,2.8
2022-11-19T10:00:32.890Z,2.9
2022-11-19T10:02:32.954Z,2.9
2022-11-19T10:03:33.864Z,2.9
2022-11-19T10:05:32.897Z,2.9
2022-11-19T10:06:32.892Z,2.9
2022-11-19T10:07:33.040Z,2.9
2022-11-19T10:08:32.941Z,2.7
2022-11-19T10:09:32.894Z,2.7
2022-11-19T10:10:32.892Z,2.8
2022-11-19T10:11:32.892Z,2.8
2022-11-19T10:12:32.970Z,2.7
2022-11-19T10:13:32.886Z,2.8
2022-11-19T10:15:37.385Z,2.7
2022-11-19T10:16:32.901Z,2.7
2022-11-19T10:17:32.880Z,2.9
2022-11-19T10:18:32.885Z,2.8
2022-11-19T10:19:32.952Z,2.7
2022-11-19T10:20:32.957Z,2.7
2022-11-19T10:21:32.888Z,2.7
2022-11-19T10:22:32.882Z,2.6
2022-11-19T10:23:32.881Z,2.8
2022-11-19T10:24:32.894Z,2.8
2022-11-19T10:26:32.887Z,2.8
2022-11-19T10:27:32.890Z,2.8
2022-11-19T10:28:32.893Z,2.9
2022-11-19T10:29:32.886Z,2.9
2022-11-19T10:30:32.889Z,2.9
2022-11-19T10:31:32.898Z,2.9
2022-11-19T10:32:32.884Z,2.9
2022-11-19T10:33:32.890Z,2.8
2022-11-19T10:34:32.885Z,2.9
2022-11-19T10:35:32.883Z,2.7
2022-11-19T10:36:32.881Z,2.7
2022-11-19T10:37:32.932Z,2.8
2022-11-19T10:38:32.886Z,2.9
2022-11-19T10:39:32.893Z,2.9
2022-11-19T10:40:32.886Z,3
2022-11-19T10:41:32.883Z,3
2022-11-19T10:42:32.887Z,2.9
2022-11-19T10:43:32.907Z,2.8
2022-11-19T10:44:32.891Z,2.9
2022-11-19T10:45:32.878Z,3
2022-11-19T10:47:32.896Z,3.1
2022-11-19T10:48:32.884Z,3.1
2022-11-19T10:49:32.913Z,3.1
2022-11-19T10:50:32.893Z,3.2
2022-11-19T10:51:32.884Z,3.3
2022-11-19T10:52:32.893Z,3.4
2022-11-19T10:53:32.879Z,3.5
2022-11-19T10:54:32.936Z,3.6
2022-11-19T10:55:32.889Z,3.8
2022-11-19T10:56:32.899Z,3.8
2022-11-19T10:57:32.890Z,3.9
2022-11-19T10:58:32.878Z,4
2022-11-19T10:59:32.888Z,4
2022-11-19T11:00:32.901Z,4.2
2022-11-19T11:01:33.008Z,4.3
2022-11-19T11:02:32.939Z,4.4
2022-11-19T11:03:32.902Z,4.3
2022-11-19T11:04:32.893Z,4.3
2022-11-19T11:05:32.886Z,4.3
2022-11-19T11:06:33.022Z,4.3
2022-11-19T11:08:32.881Z,4.4
2022-11-19T11:09:32.887Z,4.3
2022-11-19T11:10:32.945Z,4.4
2022-11-19T11:11:32.881Z,4.5
2022-11-19T11:12:32.878Z,4.5
2022-11-19T11:13:32.894Z,4.7
2022-11-19T11:14:32.922Z,4.6
2022-11-19T11:15:32.884Z,4.5
2022-11-19T11:16:37.704Z,4.5
2022-11-19T11:17:32.898Z,4.5
2022-11-19T11:18:32.886Z,4.6
2022-11-19T11:19:32.890Z,4.6
2022-11-19T11:20:32.891Z,4.7
2022-11-19T11:22:32.885Z,4.9
2022-11-19T11:23:32.891Z,5
2022-11-19T11:24:32.890Z,5
2022-11-19T11:25:32.878Z,5.2
2022-11-19T11:26:32.892Z,5.3
2022-11-19T11:27:32.880Z,5.4
2022-11-19T11:28:32.946Z,5.4
2022-11-19T11:29:32.883Z,5.4
2022-11-19T11:30:32.878Z,5.5
2022-11-19T11:31:32.887Z,5.6
2022-11-19T11:32:32.891Z,5.7
2022-11-19T11:33:32.877Z,5.8
2022-11-19T11:34:32.920Z,5.7
2022-11-19T11:35:32.878Z,5.6
2022-11-19T11:36:32.894Z,5.5
2022-11-19T11:37:32.881Z,5.5
2022-11-19T11:38:32.878Z,5.3
2022-11-19T11:39:32.886Z,5.2
2022-11-19T11:40:32.925Z,5.1
2022-11-19T11:42:32.881Z,5.1
2022-11-19T11:43:33.122Z,5.1
2022-11-19T11:44:32.881Z,5.1
2022-11-19T11:45:32.953Z,5.1
2022-11-19T11:46:32.879Z,5
2022-11-19T11:47:32.883Z,4.9
2022-11-19T11:48:32.883Z,5.1
2022-11-19T11:49:32.883Z,5.1
2022-11-19T11:50:32.935Z,5
2022-11-19T11:51:32.882Z,5
2022-11-19T11:52:32.887Z,5
2022-11-19T11:53:32.884Z,5.1
2022-11-19T11:54:32.880Z,4.9
2022-11-19T11:55:33.196Z,4.7
2022-11-19T11:56:32.887Z,4.6
2022-11-19T11:57:32.879Z,4.6
2022-11-19T11:58:32.884Z,4.6
2022-11-19T11:59:32.880Z,4.5
2022-11-19T12:00:32.899Z,4.4
2022-11-19T12:01:32.879Z,4.4
2022-11-19T12:02:33.077Z,4.5
2022-11-19T12:03:34.364Z,4.6
2022-11-19T12:04:32.939Z,4.6
2022-11-19T12:05:32.885Z,4.6
2022-11-19T12:06:32.886Z,4.6
2022-11-19T12:07:33.057Z,4.4
2022-11-19T12:08:32.884Z,4.3
2022-11-19T12:09:32.886Z,4.3
2022-11-19T12:10:32.883Z,4.3
2022-11-19T12:11:32.876Z,4.4
2022-11-19T12:12:32.880Z,4.4
2022-11-19T12:13:32.879Z,4.4
2022-11-19T12:14:32.879Z,4.4
2022-11-19T12:15:32.891Z,4.5
2022-11-19T12:16:33.032Z,4.5
2022-11-19T12:17:32.891Z,4.5
2022-11-19T12:18:32.882Z,4.6
2022-11-19T12:19:32.910Z,4.5
2022-11-19T12:20:32.879Z,4.5
2022-11-19T12:22:32.879Z,4.5
2022-11-19T12:23:32.875Z,4.6
2022-11-19T12:24:32.878Z,4.6
2022-11-19T12:25:32.881Z,4.7
2022-11-19T12:26:32.882Z,4.6
2022-11-19T12:27:32.878Z,4.6
2022-11-19T12:28:32.882Z,4.6
2022-11-19T12:29:32.905Z,4.6
2022-11-19T12:30:32.878Z,4.6
2022-11-19T12:31:32.876Z,4.6
2022-11-19T12:32:32.880Z,4.6
2022-11-19T12:33:32.912Z,4.7
2022-11-19T12:35:32.896Z,4.6
2022-11-19T12:36:32.963Z,4.6
2022-11-19T12:37:32.883Z,4.6
2022-11-19T12:38:32.887Z,4.7
2022-11-19T12:39:32.884Z,4.7
2022-11-19T12:40:39.812Z,4.6
2022-11-19T12:41:32.875Z,4.6
2022-11-19T12:43:32.885Z,4.7
2022-11-19T12:44:32.880Z,4.8
2022-11-19T12:45:32.893Z,4.8
2022-11-19T12:46:32.886Z,4.8
2022-11-19T12:47:32.907Z,4.7
2022-11-19T12:48:32.888Z,4.6
2022-11-19T12:49:32.875Z,4.6
2022-11-19T12:50:32.875Z,4.5
2022-11-19T12:52:32.874Z,4.6
2022-11-19T12:53:32.928Z,4.5
2022-11-19T12:54:35.316Z,4.4
2022-11-19T12:55:32.877Z,4.3
2022-11-19T12:56:32.874Z,4.3
2022-11-19T12:57:32.885Z,4.3
2022-11-19T12:58:32.872Z,4.4
2022-11-19T12:59:32.884Z,4.5
2022-11-19T13:01:32.956Z,4.5
2022-11-19T13:02:32.880Z,4.6
2022-11-19T13:03:32.874Z,4.7
2022-11-19T13:04:32.879Z,4.7
2022-11-19T13:05:32.872Z,4.8
2022-11-19T13:06:32.877Z,4.8
2022-11-19T13:07:32.963Z,4.8
2022-11-19T13:08:32.880Z,4.8
2022-11-19T13:09:32.883Z,4.9
2022-11-19T13:10:32.877Z,4.8
2022-11-19T13:11:32.894Z,4.9
2022-11-19T13:12:32.930Z,4.9
2022-11-19T13:13:32.878Z,4.9
2022-11-19T13:14:32.887Z,4.9
2022-11-19T13:15:32.876Z,5
2022-11-19T13:16:32.878Z,4.8
2022-11-19T13:17:32.875Z,4.7
2022-11-19T13:18:32.906Z,4.6
2022-11-19T13:20:32.874Z,4.6
2022-11-19T13:21:32.892Z,4.7
2022-11-19T13:22:32.883Z,4.7
2022-11-19T13:23:32.874Z,4.8
2022-11-19T13:25:32.880Z,4.9
2022-11-19T13:26:32.877Z,4.9
2022-11-19T13:27:32.879Z,4.9
2022-11-19T13:28:32.883Z,4.9
2022-11-19T13:29:32.926Z,5.1
2022-11-19T13:30:32.903Z,5.1
2022-11-19T13:31:32.874Z,5.2
2022-11-19T13:32:32.895Z,5.2
2022-11-19T13:34:32.876Z,5.2
2022-11-19T13:35:32.879Z,5.2
2022-11-19T13:36:32.878Z,5.1
2022-11-19T13:37:32.875Z,4.9
2022-11-19T13:38:32.881Z,5
2022-11-19T13:40:32.869Z,5.1
2022-11-19T13:42:32.879Z,5.2
2022-11-19T13:43:33.304Z,5.2
2022-11-19T13:44:32.880Z,5.3
2022-11-19T13:45:32.872Z,5.2
2022-11-19T13:46:32.874Z,5.2
2022-11-19T13:47:32.878Z,5.2
2022-11-19T13:48:32.881Z,5.2
2022-11-19T13:49:32.896Z,5.1
2022-11-19T13:50:32.871Z,5
2022-11-19T13:51:32.922Z,5
2022-11-19T13:52:32.880Z,5
2022-11-19T13:53:32.870Z,5
2022-11-19T13:55:32.873Z,5
2022-11-19T13:56:32.879Z,5.1
2022-11-19T13:57:32.875Z,5
2022-11-19T13:58:32.874Z,5
2022-11-19T13:59:33.121Z,5
2022-11-19T14:00:32.877Z,4.9
2022-11-19T14:01:32.939Z,5
2022-11-19T14:02:32.875Z,5
2022-11-19T14:03:32.881Z,5
2022-11-19T14:04:32.877Z,4.9
2022-11-19T14:05:32.878Z,4.9
2022-11-19T14:06:32.881Z,4.7
2022-11-19T14:07:32.933Z,4.7
2022-11-19T14:08:32.875Z,4.8
2022-11-19T14:09:32.878Z,4.9
2022-11-19T14:10:32.881Z,4.9
2022-11-19T14:11:32.884Z,4.9
2022-11-19T14:12:32.896Z,5
2022-11-19T14:13:32.871Z,4.9
2022-11-19T14:14:32.878Z,4.9
2022-11-19T14:15:32.928Z,4.7
2022-11-19T14:16:33.939Z,4.8
2022-11-19T14:17:32.872Z,4.7
2022-11-19T14:18:32.868Z,4.6
2022-11-19T14:19:32.872Z,4.6
2022-11-19T14:20:32.900Z,4.7
2022-11-19T14:22:32.867Z,4.7
2022-11-19T14:23:32.870Z,4.7
2022-11-19T14:24:32.881Z,4.6
2022-11-19T14:25:32.886Z,4.5
2022-11-19T14:26:32.896Z,4.6
2022-11-19T14:27:32.875Z,4.7
2022-11-19T14:28:32.868Z,4.7
2022-11-19T14:29:32.868Z,4.7
2022-11-19T14:30:32.883Z,4.8
2022-11-19T14:31:32.903Z,4.8
2022-11-19T14:32:32.878Z,4.9
2022-11-19T14:33:32.871Z,4.9
2022-11-19T14:34:32.881Z,4.8
2022-11-19T14:35:32.877Z,4.7
2022-11-19T14:36:32.874Z,4.7
2022-11-19T14:38:32.869Z,4.8
2022-11-19T14:39:32.866Z,4.8
2022-11-19T14:40:32.880Z,4.8
2022-11-19T14:41:32.869Z,4.8
2022-11-19T14:42:32.876Z,4.9
2022-11-19T14:43:32.877Z,5
2022-11-19T14:44:32.885Z,5
2022-11-19T14:45:32.877Z,5
2022-11-19T14:46:32.874Z,4.9
2022-11-19T14:47:33.501Z,5
2022-11-19T14:48:32.965Z,5
2022-11-19T14:50:32.882Z,5.1
2022-11-19T14:51:32.990Z,5.2
2022-11-19T14:52:32.949Z,5.2
2022-11-19T14:53:32.872Z,5.2
2022-11-19T14:54:33.283Z,5.1
2022-11-19T14:55:32.990Z,5
2022-11-19T14:56:32.877Z,5
2022-11-19T14:57:32.874Z,5
2022-11-19T14:58:32.875Z,5
2022-11-19T15:00:32.876Z,4.9
2022-11-19T15:01:32.878Z,4.9
2022-11-19T15:02:32.875Z,4.9
2022-11-19T15:04:32.870Z,5
2022-11-19T15:06:32.879Z,5.1
2022-11-19T15:07:32.944Z,5.1
2022-11-19T15:08:32.872Z,5.1
2022-11-19T15:09:32.871Z,5.1
2022-11-19T15:10:32.874Z,5.1
2022-11-19T15:11:32.937Z,5.1
2022-11-19T15:12:32.878Z,5
2022-11-19T15:13:32.879Z,5.1
2022-11-19T15:14:36.982Z,5
2022-11-19T15:15:32.879Z,5
2022-11-19T15:16:32.871Z,5.1
2022-11-19T15:17:32.872Z,5
2022-11-19T15:18:32.873Z,5
2022-11-19T15:19:32.872Z,5
2022-11-19T15:20:32.868Z,5
2022-11-19T15:21:32.873Z,4.9
2022-11-19T15:22:32.902Z,4.9
2022-11-19T15:23:32.869Z,4.9
2022-11-19T15:24:32.865Z,4.9
2022-11-19T15:25:32.872Z,4.9
2022-11-19T15:26:32.871Z,4.9
2022-11-19T15:27:32.865Z,4.9
2022-11-19T15:28:32.979Z,4.9
2022-11-19T15:29:32.866Z,4.9
2022-11-19T15:30:37.832Z,4.8
2022-11-19T15:31:32.869Z,4.8
2022-11-19T15:32:32.877Z,4.8
2022-11-19T15:33:32.910Z,4.8
2022-11-19T15:34:49.046Z,4.8
2022-11-19T15:35:32.874Z,4.8
2022-11-19T15:36:32.872Z,4.9
2022-11-19T15:37:32.870Z,4.8
2022-11-19T15:38:32.933Z,4.8
2022-11-19T15:39:32.874Z,4.8
2022-11-19T15:40:32.871Z,4.8
2022-11-19T15:41:32.887Z,4.8
2022-11-19T15:42:32.876Z,4.8
2022-11-19T15:43:32.875Z,4.8
2022-11-19T15:44:32.872Z,4.8
2022-11-19T15:46:32.876Z,4.8
2022-11-19T15:47:32.869Z,4.7
2022-11-19T15:48:32.874Z,4.7
2022-11-19T15:49:32.873Z,4.7
2022-11-19T15:50:32.924Z,4.7
2022-11-19T15:51:32.869Z,4.6
2022-11-19T15:52:32.875Z,4.6
2022-11-19T15:53:33.004Z,4.5
2022-11-19T15:54:32.869Z,4.5
2022-11-19T15:55:32.874Z,4.4
2022-11-19T15:56:32.879Z,4.3
2022-11-19T15:57:32.865Z,4.4
2022-11-19T15:58:32.874Z,4.4
2022-11-19T16:00:32.874Z,4.3
2022-11-19T16:02:32.877Z,4.3
2022-11-19T16:03:32.883Z,4.2
2022-11-19T16:04:32.875Z,4.1
2022-11-19T16:05:32.930Z,4.2
2022-11-19T16:06:32.869Z,4.2
2022-11-19T16:07:33.068Z,4.1
2022-11-19T16:08:32.879Z,4.2
2022-11-19T16:09:32.872Z,4.2
2022-11-19T16:10:32.877Z,4.2
2022-11-19T16:11:32.866Z,4.3
2022-11-19T16:12:32.867Z,4.3
2022-11-19T16:13:32.865Z,4.3
2022-11-19T16:14:32.866Z,4.4
2022-11-19T16:15:32.868Z,4.4
2022-11-19T16:16:32.867Z,4.5
2022-11-19T16:17:35.831Z,4.5
2022-11-19T16:18:32.873Z,4.4
2022-11-19T16:19:32.909Z,4.4
2022-11-19T16:20:32.872Z,4.5
2022-11-19T16:21:32.883Z,4.5
2022-11-19T16:22:32.868Z,4.4
2022-11-19T16:23:32.868Z,4.5
2022-11-19T16:24:32.897Z,4.5
2022-11-19T16:25:32.877Z,4.6
2022-11-19T16:26:32.899Z,4.6
2022-11-19T16:27:32.872Z,4.6
2022-11-19T16:29:32.871Z,4.5
2022-11-19T16:30:32.885Z,4.5
2022-11-19T16:31:32.909Z,4.6
2022-11-19T16:32:32.869Z,4.6
2022-11-19T16:33:32.861Z,4.5
2022-11-19T16:34:32.870Z,4.5
2022-11-19T16:35:32.864Z,4.5
2022-11-19T16:36:32.867Z,4.5
2022-11-19T16:38:32.918Z,4.5
2022-11-19T16:39:32.865Z,4.4
2022-11-19T16:40:32.877Z,4.3
2022-11-19T16:41:32.873Z,4.3
2022-11-19T16:43:32.920Z,4.2
2022-11-19T16:44:32.871Z,4.2
2022-11-19T16:45:32.878Z,4.3
2022-11-19T16:46:32.875Z,4.3
2022-11-19T16:47:32.879Z,4.2
2022-11-19T16:48:32.865Z,4.3
2022-11-19T16:49:32.873Z,4.3
2022-11-19T16:50:32.880Z,4.2
2022-11-19T16:51:32.865Z,4.2
2022-11-19T16:52:32.865Z,4.2
2022-11-19T16:53:32.873Z,4.1
2022-11-19T16:54:32.870Z,3.9
2022-11-19T16:55:32.899Z,3.9
2022-11-19T16:56:32.868Z,3.8
2022-11-19T16:57:32.873Z,3.7
2022-11-19T16:58:32.869Z,3.5
2022-11-19T16:59:32.863Z,3.5
2022-11-19T17:00:32.923Z,3.4
2022-11-19T17:01:32.957Z,3.4
2022-11-19T17:02:32.867Z,3.4
2022-11-19T17:03:32.869Z,3.4
2022-11-19T17:04:32.867Z,3.2
2022-11-19T17:06:32.894Z,3
2022-11-19T17:07:32.956Z,3
2022-11-19T17:08:32.890Z,3.1
2022-11-19T17:09:32.863Z,3.1
2022-11-19T17:10:32.866Z,3
2022-11-19T17:11:32.873Z,3.1
2022-11-19T17:12:32.864Z,3.2
2022-11-19T17:13:32.865Z,3.3
2022-11-19T17:15:32.868Z,3.4
2022-11-19T17:16:32.866Z,3.5
2022-11-19T17:17:38.441Z,3.4
2022-11-19T17:18:32.870Z,3.3
2022-11-19T17:19:33.302Z,3.3
2022-11-19T17:20:32.886Z,3.3
2022-11-19T17:21:32.878Z,3.3
2022-11-19T17:22:32.864Z,3.3
2022-11-19T17:23:32.892Z,3.3
2022-11-19T17:24:32.994Z,3.4
2022-11-19T17:25:32.866Z,3.4
2022-11-19T17:26:32.885Z,3.3
2022-11-19T17:27:32.877Z,3.3
2022-11-19T17:28:32.860Z,3.3
2022-11-19T17:29:32.874Z,3.3
2022-11-19T17:30:32.866Z,3.3
2022-11-19T17:31:32.861Z,3.3
2022-11-19T17:32:32.867Z,3.4
2022-11-19T17:33:36.606Z,3.3
2022-11-19T17:34:32.864Z,3.3
2022-11-19T17:35:32.864Z,3.4
2022-11-19T17:36:32.866Z,3.4
2022-11-19T17:37:32.871Z,3.4
2022-11-19T17:38:32.866Z,3.6
2022-11-19T17:39:32.869Z,3.6
2022-11-19T17:40:32.860Z,3.7
2022-11-19T17:41:32.876Z,3.6
2022-11-19T17:42:32.867Z,3.6
2022-11-19T17:43:32.878Z,3.5
2022-11-19T17:44:32.864Z,3.5
2022-11-19T17:45:32.869Z,3.5
2022-11-19T17:46:32.865Z,3.5
2022-11-19T17:47:32.905Z,3.5
2022-11-19T17:48:32.860Z,3.5
2022-11-19T17:49:32.868Z,3.5
2022-11-19T17:50:32.865Z,3.5
2022-11-19T17:51:32.857Z,3.5
2022-11-19T17:52:32.857Z,3.4
2022-11-19T17:53:32.866Z,3.4
2022-11-19T17:54:32.877Z,3.3
2022-11-19T17:55:32.867Z,3.3
2022-11-19T17:56:32.870Z,3.3
2022-11-19T17:57:32.890Z,3.3
2022-11-19T17:58:32.865Z,3.3
2022-11-19T17:59:32.867Z,3.3
2022-11-19T18:00:32.870Z,3.3
2022-11-19T18:01:32.902Z,3.3
2022-11-19T18:02:32.864Z,3.3
2022-11-19T18:03:32.874Z,3.3
2022-11-19T18:04:32.870Z,3.3
2022-11-19T18:05:32.870Z,3.3
2022-11-19T18:06:32.869Z,3.4
2022-11-19T18:07:32.993Z,3.4
2022-11-19T18:08:32.861Z,3.4
2022-11-19T18:09:35.052Z,3.3
2022-11-19T18:10:32.857Z,3.3
2022-11-19T18:11:32.865Z,3.3
2022-11-19T18:12:32.864Z,3.4
2022-11-19T18:13:32.863Z,3.4
2022-11-19T18:14:32.866Z,3.4
2022-11-19T18:15:32.869Z,3.4
2022-11-19T18:16:32.870Z,3.4
2022-11-19T18:17:32.864Z,3.4
2022-11-19T18:18:32.868Z,3.4
2022-11-19T18:19:32.860Z,3.4
2022-11-19T18:20:32.871Z,3.5
2022-11-19T18:21:32.859Z,3.4
2022-11-19T18:22:32.887Z,3.4
2022-11-19T18:23:32.915Z,3.3
2022-11-19T18:24:32.862Z,3.4
2022-11-19T18:25:32.858Z,3.5
2022-11-19T18:26:32.861Z,3.5
2022-11-19T18:27:32.864Z,3.4
2022-11-19T18:29:32.852Z,3.3
2022-11-19T18:30:32.872Z,3.2
2022-11-19T18:31:32.854Z,3.2
2022-11-19T18:32:32.858Z,3.3
2022-11-19T18:33:32.857Z,3.2
2022-11-19T18:34:32.860Z,3.2
2022-11-19T18:35:32.900Z,3.3
2022-11-19T18:36:32.867Z,3.3
2022-11-19T18:37:32.860Z,3.3
2022-11-19T18:38:32.859Z,3.2
2022-11-19T18:39:32.864Z,3.2
2022-11-19T18:40:32.941Z,3.2
2022-11-19T18:41:32.861Z,3.1
2022-11-19T18:42:32.863Z,3.1
2022-11-19T18:43:37.479Z,3.1
2022-11-19T18:44:32.865Z,3.1
2022-11-19T18:45:32.870Z,3.2
2022-11-19T18:46:32.873Z,3.2
2022-11-19T18:47:32.928Z,3.3
2022-11-19T18:48:32.863Z,3.2
2022-11-19T18:49:32.867Z,3.2
2022-11-19T18:50:32.866Z,3.2
2022-11-19T18:51:32.877Z,3.2
2022-11-19T18:52:32.931Z,3.2
2022-11-19T18:53:32.863Z,3.2